METAR Data
IDs: Format: Raw Decoded Include TAF

Data at: 1946 UTC 26 Sep 2021

EFHK 261920Z VRB01KT CAVOK 04/04 Q1025 NOSIG